Greenway, AR (72430)

1:02 PM CDT on August 24, 2016 (GMT -0500)
Kennett E911 | | Change Station

Elev 262 ft 36.24 °N, 90.06 °W | Updated 1 minute ago

Clear
Clear
91.8 °F
Feels Like 109 °F
N
10.0
Wind Variable Wind from SSW
Gusts 15.0 mph

Today
High -- | Low -- °F
--% Chance of Precip.
Yesterday
High -- | Low -- °F
Precip. -- in
Pressure 30.08 in
Visibility 10.0 miles
Clouds Clear
Heat Index 109 °F
Dew Point 79 °F
Humidity 67%
Rainfall 0.00 in
Snow Depth Not available.
6:26 AM 7:39 PM
Waning Gibbous, 55% visible
METAR KPOF 241753Z AUTO 22008KT 190V250 10SM CLR 32/24 A3009 RMK AO2 SLP185 T03170239 10317 20233 58007 TSNO
Pressure 30.08 in
Visibility 10.0 miles
Clouds Clear
Heat Index 109 °F
Dew Point 79 °F
Humidity 67%
Rainfall 0.00 in
Snow Depth Not available.
6:26 AM 7:39 PM
Waning Gibbous, 55% visible
METAR KPOF 241753Z AUTO 22008KT 190V250 10SM CLR 32/24 A3009 RMK AO2 SLP185 T03170239 10317 20233 58007 TSNO

10-Day Weather Forecast

Almanac

Astronomy

Aug. 24, 2016 Rise Set
Actual Time
Civil Twilight
Nautical Twilight
Astronomical Twilight
Moon
Length of Visible Light
Length of Day
Tomorrow will be .
, % of the Moon is Illuminated

Today's Extremes

State Highs State Lows

Community

WunderPhotos

Upload Photos

1,934,662 photos uploaded!

WunderBlog® & News

Nearby

Air Quality

  Air Quality AQ Index Pollutant
Not available.

Snow Depth

Station Depth Elevation

Earthquake Activity

City Distance Mag. Time & Date
Minimum magnitude displayed is 2.5.

Coastal Water Temperatures

Place Temperature

Stations

Nearby Weather Stations

Station Location Temp. Windchill Dew Point Humidity Wind Precip. Elev Updated Type
                   

Watches & Warnings

There are currently no watches in effect.